createdAt,value
2019-04-10T00:02:27.036Z,8.50
2019-04-10T00:05:07.821Z,8.30
2019-04-10T00:07:48.498Z,8.40
2019-04-10T00:10:29.949Z,8.40
2019-04-10T00:13:11.922Z,8.40
2019-04-10T00:15:52.917Z,8.30
2019-04-10T00:18:33.775Z,8.30
2019-04-10T00:21:15.518Z,8.20
2019-04-10T00:23:55.962Z,8.20
2019-04-10T00:26:37.497Z,8.10
2019-04-10T00:29:18.763Z,8.10
2019-04-10T00:32:01.718Z,8.00
2019-04-10T00:34:42.623Z,8.10
2019-04-10T00:37:28.184Z,8.10
2019-04-10T00:40:06.903Z,8.10
2019-04-10T00:42:47.573Z,8.00
2019-04-10T00:45:29.209Z,8.00
2019-04-10T00:48:10.582Z,7.90
2019-04-10T00:50:51.374Z,7.90
2019-04-10T00:53:32.819Z,7.90
2019-04-10T00:56:14.571Z,7.70
2019-04-10T00:58:55.442Z,7.70
2019-04-10T01:01:34.625Z,7.60
2019-04-10T01:04:22.687Z,7.50
2019-04-10T01:07:10.806Z,7.50
2019-04-10T01:09:59.102Z,7.50
2019-04-10T01:12:48.154Z,7.40
2019-04-10T01:15:37.079Z,7.40
2019-04-10T03:17:40.100Z,6.00
2019-04-10T03:20:20.477Z,5.90
2019-04-10T03:23:01.091Z,5.80
2019-04-10T03:25:41.938Z,5.80
2019-04-10T03:28:22.957Z,5.80
2019-04-10T03:31:05.809Z,5.60
2019-04-10T03:33:55.987Z,5.80
2019-04-10T03:36:38.615Z,5.70
2019-04-10T03:39:19.819Z,5.50
2019-04-10T03:41:48.861Z,5.60
2019-04-10T03:44:36.995Z,5.60
2019-04-10T03:47:25.186Z,5.50
2019-04-10T03:50:14.243Z,5.50
2019-04-10T03:53:03.196Z,5.40
2019-04-10T03:55:43.236Z,5.40
2019-04-10T03:58:31.576Z,5.20
2019-04-10T04:01:19.717Z,5.20
2019-04-10T04:04:09.011Z,5.20
2019-04-10T04:06:57.844Z,5.20
2019-04-10T04:09:46.075Z,5.10
2019-04-10T04:12:35.009Z,5.10
2019-04-10T04:15:24.142Z,5.00
2019-04-10T04:18:12.971Z,5.00
2019-04-10T04:21:02.132Z,4.80
2019-04-10T04:23:51.091Z,4.80
2019-04-10T04:26:40.428Z,4.80
2019-04-10T04:29:30.343Z,4.70
2019-04-10T04:32:19.815Z,4.70
2019-04-10T04:35:08.990Z,4.70
2019-04-10T04:37:58.358Z,4.70
2019-04-10T04:40:48.357Z,4.60
2019-04-10T04:43:37.474Z,4.50
2019-04-10T04:46:26.051Z,4.70
2019-04-10T04:49:15.713Z,4.70
2019-04-10T04:52:05.230Z,4.60
2019-04-10T04:54:53.393Z,4.70
2019-04-10T04:57:36.496Z,4.70
2019-04-10T05:00:17.351Z,4.70
2019-04-10T05:02:57.895Z,4.80
2019-04-10T05:05:39.138Z,4.80
2019-04-10T05:08:20.346Z,4.80
2019-04-10T05:11:00.834Z,4.90
2019-04-10T05:13:42.249Z,5.00
2019-04-10T05:16:24.831Z,5.00
2019-04-10T05:19:05.277Z,5.20
2019-04-10T05:21:45.850Z,5.30
2019-04-10T05:24:26.267Z,5.40
2019-04-10T05:27:07.787Z,5.50
2019-04-10T05:29:48.982Z,5.60
2019-04-10T05:32:30.770Z,5.70
2019-04-10T05:35:12.098Z,5.80
2019-04-10T05:37:54.075Z,5.80
2019-04-10T05:40:35.275Z,6.10
2019-04-10T05:43:16.046Z,6.20
2019-04-10T05:45:57.184Z,6.30
2019-04-10T05:48:38.215Z,6.50
2019-04-10T05:51:19.161Z,6.70
2019-04-10T05:54:00.395Z,7.00
2019-04-10T05:56:41.258Z,7.30
2019-04-10T05:59:21.876Z,7.50
2019-04-10T06:02:03.143Z,7.60
2019-04-10T06:04:45.410Z,7.90
2019-04-10T06:07:25.877Z,8.10
2019-04-10T06:10:09.045Z,8.40
2019-04-10T06:12:49.234Z,8.70
2019-04-10T06:15:30.806Z,8.90
2019-04-10T06:18:12.814Z,8.80
2019-04-10T06:20:54.568Z,9.20
2019-04-10T06:23:35.865Z,9.30
2019-04-10T06:26:16.900Z,9.90
2019-04-10T06:28:58.939Z,10.20
2019-04-10T06:31:40.879Z,10.40
2019-04-10T06:34:22.590Z,10.80
2019-04-10T06:37:04.056Z,10.90
2019-04-10T06:39:46.006Z,11.10
2019-04-10T06:42:27.588Z,11.60
2019-04-10T06:45:09.417Z,11.30
2019-04-10T06:47:50.797Z,11.60
2019-04-10T06:50:31.630Z,11.80
2019-04-10T06:53:15.791Z,11.90
2019-04-10T06:55:56.543Z,11.90
2019-04-10T06:58:38.113Z,12.30
2019-04-10T07:01:21.570Z,12.50
2019-04-10T07:04:06.524Z,12.60
2019-04-10T07:06:55.704Z,12.60
2019-04-10T07:09:27.318Z,12.40
2019-04-10T07:12:08.753Z,12.60
2019-04-10T07:14:51.168Z,12.90
2019-04-10T07:17:35.696Z,12.70
2019-04-10T07:20:17.798Z,12.50
2019-04-10T07:22:58.247Z,12.50
2019-04-10T07:25:40.326Z,12.40
2019-04-10T07:28:19.747Z,12.70
2019-04-10T07:31:09.797Z,12.60
2019-04-10T07:33:59.841Z,12.70
2019-04-10T07:36:47.826Z,12.50
2019-04-10T07:39:35.963Z,12.80
2019-04-10T07:42:28.412Z,12.60
2019-04-10T07:44:56.479Z,12.20
2019-04-10T07:47:44.690Z,12.40
2019-04-10T07:50:14.290Z,12.40
2019-04-10T07:53:03.665Z,12.70
2019-04-10T07:55:57.497Z,12.70
2019-04-10T07:58:27.364Z,12.70
2019-04-10T08:01:08.039Z,12.60
2019-04-10T08:03:51.317Z,12.60
2019-04-10T08:06:31.553Z,12.70
2019-04-10T08:09:12.570Z,13.00
2019-04-10T08:11:51.911Z,13.40
2019-04-10T08:14:40.038Z,13.70
2019-04-10T08:17:28.329Z,13.50
2019-04-10T08:20:17.701Z,13.70
2019-04-10T08:23:07.895Z,13.90
2019-04-10T08:25:57.952Z,13.90
2019-04-10T08:28:47.507Z,13.80
2019-04-10T08:31:37.367Z,13.70
2019-04-10T08:34:26.546Z,14.00
2019-04-10T08:37:14.931Z,14.50
2019-04-10T08:40:03.211Z,14.70
2019-04-10T08:42:51.376Z,14.80
2019-04-10T08:45:46.612Z,14.60
2019-04-10T08:48:30.559Z,14.50
2019-04-10T08:51:19.479Z,14.70
2019-04-10T08:54:07.897Z,14.60
2019-04-10T08:56:50.223Z,14.60
2019-04-10T08:59:30.017Z,14.20
2019-04-10T09:02:18.240Z,14.50
2019-04-10T09:05:06.553Z,14.50
2019-04-10T09:07:54.779Z,14.70
2019-04-10T09:10:42.906Z,14.90
2019-04-10T09:13:31.030Z,14.80
2019-04-10T09:16:19.177Z,15.20
2019-04-10T09:19:07.302Z,16.00
2019-04-10T09:21:55.593Z,16.30
2019-04-10T09:24:44.623Z,16.20
2019-04-10T09:27:33.754Z,16.70
2019-04-10T09:30:21.950Z,17.20
2019-04-10T09:33:20.879Z,17.70
2019-04-10T09:36:00.600Z,17.90
2019-04-10T09:38:50.672Z,17.30
2019-04-10T09:41:39.580Z,17.60
2019-04-10T09:44:27.844Z,17.90
2019-04-10T09:47:16.415Z,17.60
2019-04-10T09:50:06.058Z,17.50
2019-04-10T09:52:54.521Z,17.50
2019-04-10T09:55:44.788Z,17.30
2019-04-10T09:58:34.017Z,17.20
2019-04-10T10:01:22.217Z,17.70
2019-04-10T10:04:10.350Z,18.50
2019-04-10T10:06:58.508Z,17.90
2019-04-10T10:09:47.236Z,17.70
2019-04-10T10:12:36.534Z,18.00
2019-04-10T10:15:25.275Z,18.70
2019-04-10T10:18:14.638Z,18.80
2019-04-10T10:21:04.026Z,19.00
2019-04-10T10:23:52.606Z,19.50
2019-04-10T10:26:43.268Z,20.60
2019-04-10T10:29:30.612Z,20.80
2019-04-10T10:32:19.193Z,20.10
2019-04-10T10:35:09.284Z,20.30
2019-04-10T10:37:58.957Z,19.90
2019-04-10T10:40:48.736Z,20.10
2019-04-10T10:43:58.420Z,19.90
2019-04-10T10:46:47.428Z,20.40
2019-04-10T10:49:36.795Z,20.20
2019-04-10T10:52:26.330Z,20.50
2019-04-10T10:55:15.473Z,21.30
2019-04-10T10:57:57.535Z,21.70
2019-04-10T11:00:39.002Z,22.30
2019-04-10T11:03:20.462Z,22.80
2019-04-10T11:06:00.934Z,23.10
2019-04-10T11:08:41.811Z,23.60
2019-04-10T11:11:22.775Z,23.80
2019-04-10T11:14:04.719Z,24.10
2019-04-10T11:16:47.031Z,24.20
2019-04-10T11:19:28.952Z,24.00
2019-04-10T11:22:12.619Z,24.20
2019-04-10T11:24:52.654Z,24.00
2019-04-10T11:27:34.327Z,24.60
2019-04-10T11:30:16.100Z,23.80
2019-04-10T11:32:58.273Z,23.60
2019-04-10T11:35:39.655Z,23.60
2019-04-10T11:38:21.630Z,22.80
2019-04-10T11:41:02.901Z,22.30
2019-04-10T11:43:46.185Z,21.90
2019-04-10T11:46:31.068Z,21.80
2019-04-10T11:49:12.921Z,21.50
2019-04-10T11:51:53.645Z,21.00
2019-04-10T11:54:40.469Z,20.70
2019-04-10T11:57:19.748Z,20.30
2019-04-10T12:00:02.310Z,20.60
2019-04-10T12:02:45.871Z,20.80
2019-04-10T12:05:28.781Z,20.90
2019-04-10T12:08:33.543Z,21.30
2019-04-10T12:13:34.548Z,22.40
2019-04-10T12:16:15.254Z,23.00
2019-04-10T12:18:57.229Z,23.70
2019-04-10T12:21:38.110Z,23.90
2019-04-10T12:24:18.510Z,24.20
2019-04-10T12:27:00.429Z,23.10
2019-04-10T12:29:42.567Z,23.40
2019-04-10T12:32:23.245Z,23.00
2019-04-10T12:35:04.682Z,23.50
2019-04-10T12:37:45.695Z,23.20
2019-04-10T12:40:26.575Z,23.40
2019-04-10T12:43:07.376Z,22.90
2019-04-10T12:45:48.541Z,23.00
2019-04-10T12:48:36.921Z,23.00
2019-04-10T12:51:25.675Z,23.10
2019-04-10T12:54:15.206Z,22.90
2019-04-10T12:56:56.663Z,22.70
2019-04-10T12:59:37.734Z,21.50
2019-04-10T13:02:18.595Z,20.80
2019-04-10T13:04:59.400Z,20.40
2019-04-10T13:07:40.093Z,20.40
2019-04-10T13:10:20.750Z,19.80
2019-04-10T13:13:01.995Z,19.90
2019-04-10T13:15:43.459Z,19.50
2019-04-10T13:18:22.865Z,18.80
2019-04-10T13:21:11.007Z,18.20
2019-04-10T13:23:59.455Z,17.80
2019-04-10T13:26:50.157Z,17.50
2019-04-10T13:29:38.858Z,17.60
2019-04-10T13:32:27.677Z,17.40
2019-04-10T13:35:17.955Z,17.60
2019-04-10T13:38:06.833Z,17.40
2019-04-10T13:40:54.991Z,17.10
2019-04-10T13:43:44.050Z,17.20
2019-04-10T13:46:13.899Z,17.40
2019-04-10T13:49:02.209Z,17.50
2019-04-10T13:51:50.357Z,17.30
2019-04-10T13:54:38.861Z,17.20
2019-04-10T13:57:20.695Z,17.10
2019-04-10T14:00:01.759Z,17.00
2019-04-10T14:02:42.162Z,16.80
2019-04-10T14:05:24.104Z,16.50
2019-04-10T14:08:04.798Z,16.70
2019-04-10T14:10:46.725Z,16.50
2019-04-10T14:13:27.595Z,16.60
2019-04-10T14:16:08.838Z,16.80
2019-04-10T14:18:50.870Z,16.80
2019-04-10T14:21:31.879Z,16.90
2019-04-10T14:24:12.831Z,16.90
2019-04-10T14:27:18.527Z,16.80
2019-04-10T14:29:59.129Z,17.00
2019-04-10T14:32:39.986Z,16.80
2019-04-10T14:35:21.081Z,16.60
2019-04-10T14:38:01.490Z,16.50
2019-04-10T14:40:42.076Z,16.30
2019-04-10T14:43:22.922Z,16.20
2019-04-10T14:46:03.723Z,16.20
2019-04-10T14:48:44.665Z,15.80
2019-04-10T14:51:26.212Z,15.70
2019-04-10T14:54:07.837Z,15.50
2019-04-10T14:56:49.037Z,15.20
2019-04-10T14:59:29.749Z,15.20
2019-04-10T15:02:10.625Z,15.20
2019-04-10T15:04:51.518Z,15.10
2019-04-10T15:07:33.130Z,14.90
2019-04-10T15:10:14.380Z,14.80
2019-04-10T15:12:56.540Z,14.70
2019-04-10T15:15:38.704Z,14.80
2019-04-10T15:18:20.487Z,14.60
2019-04-10T15:21:02.693Z,14.20
2019-04-10T15:23:44.725Z,14.40
2019-04-10T15:26:26.020Z,14.40
2019-04-10T15:29:07.916Z,14.30
2019-04-10T15:31:48.042Z,14.30
2019-04-10T15:34:37.291Z,14.30
2019-04-10T15:37:26.134Z,14.00
2019-04-10T15:40:20.899Z,13.80
2019-04-10T15:43:04.934Z,13.80
2019-04-10T15:45:54.601Z,13.80
2019-04-10T15:48:44.139Z,13.70
2019-04-10T15:51:32.288Z,13.70
2019-04-10T15:54:21.504Z,13.70
2019-04-10T15:57:02.770Z,13.40
2019-04-10T15:59:44.165Z,13.50
2019-04-10T16:02:25.861Z,13.30
2019-04-10T16:05:07.089Z,13.30
2019-04-10T16:07:48.943Z,13.20
2019-04-10T16:10:49.655Z,13.10
2019-04-10T16:13:38.802Z,13.10
2019-04-10T16:16:40.356Z,13.20
2019-04-10T16:22:33.158Z,13.20
2019-04-10T16:25:34.096Z,13.10
2019-04-10T16:28:14.525Z,13.00
2019-04-10T16:31:03.390Z,12.90
2019-04-10T16:33:52.912Z,12.90
2019-04-10T16:36:41.704Z,13.00
2019-04-10T16:39:30.046Z,13.00
2019-04-10T16:42:18.960Z,12.80
2019-04-10T16:45:08.158Z,12.80
2019-04-10T16:47:56.643Z,12.80
2019-04-10T16:50:46.198Z,12.70
2019-04-10T16:53:34.338Z,12.60
2019-04-10T16:56:15.666Z,12.50
2019-04-10T17:09:47.303Z,12.00
2019-04-10T17:15:57.638Z,11.90
